Time;durP1;ratioP1;P1;durP2;ratioP2;P2;SDS_P1;SDS_P2;PMS_P1;PMS_P2;Temp;Humidity;BMP_temperature;BMP_pressure;BME280_temperature;BME280_humidity;BME280_pressure;Samples;Min_cycle;Max_cycle;Signal;HPM_P1;HPM_P2
2022/03/01 00:02:39;;;;;;;16.73;9.25;;;;;;;;;;5032653;28;20033;-64
2022/03/01 00:05:25;;;;;;;17.30;9.98;;;;;;;;;;5032975;28;20530;-63
2022/03/01 00:08:10;;;;;;;16.35;9.77;;;;;;;;;;5019674;28;20033;-63
2022/03/01 00:10:55;;;;;;;16.17;9.50;;;;;;;;;;5020077;28;20500;-61
2022/03/01 00:13:40;;;;;;;16.88;9.85;;;;;;;;;;5030898;28;20039;-62
2022/03/01 00:16:26;;;;;;;16.20;9.82;;;;;;;;;;5031479;28;20024;-67
2022/03/01 00:19:11;;;;;;;15.35;8.77;;;;;;;;;;5016692;28;20471;-62
2022/03/01 00:21:57;;;;;;;14.60;8.98;;;;;;;;;;5034988;28;20040;-70
2022/03/01 00:24:42;;;;;;;17.10;9.20;;;;;;;;;;5034649;28;20115;-67
2022/03/01 00:27:27;;;;;;;15.52;8.75;;;;;;;;;;5025879;28;20032;-66
2022/03/01 00:30:12;;;;;;;15.15;8.88;;;;;;;;;;5031043;28;20091;-67
2022/03/01 00:32:58;;;;;;;16.98;9.43;;;;;;;;;;5027952;28;20025;-66
2022/03/01 00:35:44;;;;;;;15.05;8.85;;;;;;;;;;5031739;28;20080;-67
2022/03/01 00:38:29;;;;;;;18.48;8.65;;;;;;;;;;5020449;28;20033;-63
2022/03/01 00:41:15;;;;;;;15.55;8.40;;;;;;;;;;5031165;28;20033;-65
2022/03/01 00:44:00;;;;;;;16.88;9.68;;;;;;;;;;5021942;28;20036;-62
2022/03/01 00:46:45;;;;;;;16.55;8.68;;;;;;;;;;5029016;28;20040;-62
2022/03/01 00:49:30;;;;;;;16.92;8.70;;;;;;;;;;5023941;28;20035;-62
2022/03/01 00:52:16;;;;;;;16.75;9.13;;;;;;;;;;5023805;28;20117;-63
2022/03/01 00:55:01;;;;;;;16.95;8.30;;;;;;;;;;5032992;28;20079;-65
2022/03/01 00:57:46;;;;;;;17.80;8.40;;;;;;;;;;5017837;28;20036;-61
2022/03/01 01:00:32;;;;;;;15.15;8.02;;;;;;;;;;5022475;28;20052;-63
2022/03/01 01:03:17;;;;;;;16.52;8.75;;;;;;;;;;5019954;28;20029;-61
2022/03/01 01:06:02;;;;;;;17.65;9.82;;;;;;;;;;5026172;28;20116;-62
2022/03/01 01:08:48;;;;;;;17.05;9.40;;;;;;;;;;5029682;28;20029;-61
2022/03/01 01:11:33;;;;;;;17.70;9.35;;;;;;;;;;5020024;28;20499;-65
2022/03/01 01:14:18;;;;;;;16.55;9.02;;;;;;;;;;5020689;28;20155;-64
2022/03/01 01:17:03;;;;;;;16.70;10.25;;;;;;;;;;5024690;28;20044;-63
2022/03/01 01:19:49;;;;;;;16.25;9.30;;;;;;;;;;5022298;28;20032;-67
2022/03/01 01:22:40;;;;;;;16.80;9.10;;;;;;;;;;5029105;28;20143;-64
2022/03/01 01:25:25;;;;;;;20.52;9.52;;;;;;;;;;5028669;28;20029;-63
2022/03/01 01:28:11;;;;;;;15.82;9.02;;;;;;;;;;5029980;28;20036;-66
2022/03/01 01:30:56;;;;;;;17.73;8.90;;;;;;;;;;5032390;28;20076;-65
2022/03/01 01:33:41;;;;;;;17.65;9.30;;;;;;;;;;5019372;28;20028;-65
2022/03/01 01:36:27;;;;;;;20.92;9.90;;;;;;;;;;5022106;28;20047;-62
2022/03/01 01:39:12;;;;;;;18.75;9.40;;;;;;;;;;5029297;28;20227;-63
2022/03/01 01:41:57;;;;;;;17.23;8.95;;;;;;;;;;5028671;28;20052;-63
2022/03/01 01:44:43;;;;;;;15.98;8.88;;;;;;;;;;5018982;28;20080;-62
2022/03/01 01:47:28;;;;;;;17.23;10.23;;;;;;;;;;5032394;28;20525;-62
2022/03/01 01:50:14;;;;;;;16.60;9.15;;;;;;;;;;5016596;28;20037;-67
2022/03/01 01:52:59;;;;;;;16.67;9.02;;;;;;;;;;5030333;28;20032;-65
2022/03/01 01:55:44;;;;;;;19.38;10.38;;;;;;;;;;5026897;28;20111;-67
2022/03/01 01:58:30;;;;;;;15.05;8.07;;;;;;;;;;5028159;28;20387;-66
2022/03/01 02:01:15;;;;;;;18.95;9.93;;;;;;;;;;5021631;28;20155;-67
2022/03/01 02:04:00;;;;;;;16.33;9.15;;;;;;;;;;5019690;28;20037;-67
2022/03/01 02:06:50;;;;;;;14.15;8.48;;;;;;;;;;5032252;28;20040;-65
2022/03/01 02:09:36;;;;;;;17.30;8.63;;;;;;;;;;5033412;28;20037;-66
2022/03/01 02:12:21;;;;;;;17.20;9.27;;;;;;;;;;5034862;28;20498;-66
2022/03/01 02:15:08;;;;;;;17.60;9.70;;;;;;;;;;5030176;28;20029;-66
2022/03/01 02:17:53;;;;;;;19.95;10.48;;;;;;;;;;5035907;28;20039;-66
2022/03/01 02:20:39;;;;;;;18.20;9.23;;;;;;;;;;5021636;28;20053;-67
2022/03/01 02:23:24;;;;;;;19.52;9.73;;;;;;;;;;5032653;28;20422;-65
2022/03/01 02:26:09;;;;;;;16.67;9.50;;;;;;;;;;5028538;28;20037;-62
2022/03/01 02:28:54;;;;;;;18.98;10.02;;;;;;;;;;5031844;28;20395;-65
2022/03/01 02:31:39;;;;;;;19.30;9.88;;;;;;;;;;5033480;28;20116;-69
2022/03/01 02:34:25;;;;;;;19.23;9.90;;;;;;;;;;5034143;28;20113;-65
2022/03/01 02:37:11;;;;;;;19.67;9.88;;;;;;;;;;5035888;28;20037;-67
2022/03/01 02:39:57;;;;;;;18.00;9.70;;;;;;;;;;5034929;28;20036;-66
2022/03/01 02:42:44;;;;;;;18.08;8.88;;;;;;;;;;5019076;28;20033;-65
2022/03/01 02:45:29;;;;;;;19.67;10.63;;;;;;;;;;5034909;28;20033;-64
2022/03/01 02:48:15;;;;;;;17.55;9.68;;;;;;;;;;5029054;28;20037;-63
2022/03/01 02:51:00;;;;;;;25.60;11.30;;;;;;;;;;5017816;28;20029;-62
2022/03/01 02:53:45;;;;;;;19.13;10.52;;;;;;;;;;5025099;28;20472;-63
2022/03/01 02:56:31;;;;;;;19.65;9.70;;;;;;;;;;5018597;28;20048;-63
2022/03/01 02:59:16;;;;;;;18.42;9.82;;;;;;;;;;5030730;28;20059;-64
2022/03/01 03:02:01;;;;;;;19.73;10.40;;;;;;;;;;5032015;28;20033;-65
2022/03/01 03:04:46;;;;;;;23.00;10.98;;;;;;;;;;5030227;28;20094;-60
2022/03/01 03:07:32;;;;;;;20.60;11.23;;;;;;;;;;5017066;28;20384;-66
2022/03/01 03:10:17;;;;;;;19.58;10.25;;;;;;;;;;5035330;28;20064;-63
2022/03/01 03:13:03;;;;;;;22.40;11.80;;;;;;;;;;5036028;28;20036;-64
2022/03/01 03:15:48;;;;;;;21.55;11.25;;;;;;;;;;5021854;28;20021;-64
2022/03/01 03:18:34;;;;;;;21.45;9.90;;;;;;;;;;5021036;28;20048;-64
2022/03/01 03:21:19;;;;;;;19.08;10.68;;;;;;;;;;5031441;28;20122;-65
2022/03/01 03:24:04;;;;;;;16.95;9.55;;;;;;;;;;5029433;28;20047;-62
2022/03/01 03:26:51;;;;;;;18.52;9.88;;;;;;;;;;5037061;28;20025;-64
2022/03/01 03:29:36;;;;;;;18.23;10.88;;;;;;;;;;5022770;28;20519;-59
2022/03/01 03:32:21;;;;;;;21.40;11.60;;;;;;;;;;5023024;28;20061;-60
2022/03/01 03:35:07;;;;;;;19.83;9.50;;;;;;;;;;5033453;28;20612;-60
2022/03/01 03:37:52;;;;;;;18.20;9.63;;;;;;;;;;5026023;28;20203;-62
2022/03/01 03:40:37;;;;;;;18.17;9.80;;;;;;;;;;5021735;28;20039;-65
2022/03/01 03:43:23;;;;;;;18.98;10.23;;;;;;;;;;5017743;28;20387;-64
2022/03/01 03:46:08;;;;;;;19.17;10.02;;;;;;;;;;5033903;28;20087;-63
2022/03/01 03:48:53;;;;;;;21.38;10.18;;;;;;;;;;5022889;28;20126;-62
2022/03/01 03:51:38;;;;;;;22.65;10.98;;;;;;;;;;5033383;28;20135;-63
2022/03/01 03:54:23;;;;;;;19.55;10.57;;;;;;;;;;5031486;28;20033;-63
2022/03/01 03:57:09;;;;;;;20.52;10.75;;;;;;;;;;5031015;28;20033;-66
2022/03/01 03:59:55;;;;;;;17.80;10.30;;;;;;;;;;5025093;28;20059;-66
2022/03/01 04:02:40;;;;;;;22.13;10.38;;;;;;;;;;5020999;28;20479;-70
2022/03/01 04:05:27;;;;;;;18.38;11.05;;;;;;;;;;5034186;28;20025;-63
2022/03/01 04:08:13;;;;;;;18.67;10.10;;;;;;;;;;5026636;28;20033;-65
2022/03/01 04:11:00;;;;;;;22.05;10.02;;;;;;;;;;5034326;28;20507;-65
2022/03/01 04:13:45;;;;;;;20.30;10.73;;;;;;;;;;5049163;28;20054;-65
2022/03/01 04:16:30;;;;;;;18.85;9.73;;;;;;;;;;5030700;28;20523;-64
2022/03/01 04:19:17;;;;;;;21.85;10.25;;;;;;;;;;5034808;28;20035;-64
2022/03/01 04:22:02;;;;;;;19.58;11.27;;;;;;;;;;5019873;28;20026;-60
2022/03/01 04:24:48;;;;;;;22.15;12.25;;;;;;;;;;5027852;28;20021;-64
2022/03/01 04:27:33;;;;;;;21.55;10.77;;;;;;;;;;5023491;28;20033;-62
2022/03/01 04:30:19;;;;;;;20.42;10.57;;;;;;;;;;5031833;28;20043;-61
2022/03/01 04:33:04;;;;;;;22.25;11.02;;;;;;;;;;5026143;28;20025;-61
2022/03/01 04:35:49;;;;;;;21.73;11.10;;;;;;;;;;5030575;28;20430;-62
2022/03/01 04:38:35;;;;;;;21.58;10.40;;;;;;;;;;5031489;28;20036;-65
2022/03/01 04:41:20;;;;;;;21.35;11.30;;;;;;;;;;5035125;28;20071;-64
2022/03/01 04:44:05;;;;;;;23.10;11.73;;;;;;;;;;5024291;28;20036;-66
2022/03/01 04:46:51;;;;;;;22.52;11.15;;;;;;;;;;5019697;28;20021;-66
2022/03/01 04:49:36;;;;;;;20.30;11.05;;;;;;;;;;5033146;28;20511;-65
2022/03/01 04:52:21;;;;;;;20.65;11.23;;;;;;;;;;5026924;28;20032;-65
2022/03/01 04:55:07;;;;;;;20.77;11.23;;;;;;;;;;5032924;28;20099;-64
2022/03/01 04:57:52;;;;;;;19.15;10.85;;;;;;;;;;5031007;28;20055;-65
2022/03/01 05:00:37;;;;;;;22.98;11.77;;;;;;;;;;5018886;28;20536;-67
2022/03/01 05:03:23;;;;;;;23.10;13.00;;;;;;;;;;5020484;28;20029;-69
2022/03/01 05:06:09;;;;;;;21.05;12.13;;;;;;;;;;5023150;28;20045;-70
2022/03/01 05:08:54;;;;;;;20.63;12.60;;;;;;;;;;5031609;28;20530;-66
2022/03/01 05:11:39;;;;;;;21.33;12.23;;;;;;;;;;5029841;28;20041;-68
2022/03/01 05:14:25;;;;;;;22.55;12.10;;;;;;;;;;5029623;28;20075;-63
2022/03/01 05:17:11;;;;;;;21.33;11.80;;;;;;;;;;5022966;28;20076;-61
2022/03/01 05:19:57;;;;;;;20.15;11.70;;;;;;;;;;5032152;28;20383;-63
2022/03/01 05:22:42;;;;;;;24.27;11.45;;;;;;;;;;5033791;28;20110;-61
2022/03/01 05:25:27;;;;;;;21.65;11.63;;;;;;;;;;5013667;28;20033;-61
2022/03/01 05:28:12;;;;;;;22.35;11.15;;;;;;;;;;5023395;28;20055;-62
2022/03/01 05:30:58;;;;;;;24.98;13.07;;;;;;;;;;5022425;28;20033;-67
2022/03/01 05:33:43;;;;;;;19.85;10.43;;;;;;;;;;5019532;28;20120;-62
2022/03/01 05:36:29;;;;;;;18.60;10.45;;;;;;;;;;5026172;28;20526;-64
2022/03/01 05:39:14;;;;;;;22.92;11.07;;;;;;;;;;5019019;28;20145;-61
2022/03/01 05:41:59;;;;;;;23.23;12.90;;;;;;;;;;5026247;28;20067;-61
2022/03/01 05:44:44;;;;;;;22.08;11.85;;;;;;;;;;5023632;28;20025;-62
2022/03/01 05:47:30;;;;;;;24.52;12.07;;;;;;;;;;5035434;28;20036;-63
2022/03/01 05:50:15;;;;;;;19.45;11.80;;;;;;;;;;5030451;28;20040;-66
2022/03/01 05:53:00;;;;;;;21.45;12.10;;;;;;;;;;5018777;28;20045;-65
2022/03/01 05:55:46;;;;;;;20.77;10.60;;;;;;;;;;5023649;28;20526;-67
2022/03/01 05:58:31;;;;;;;23.33;12.15;;;;;;;;;;5027661;28;20036;-65
2022/03/01 06:01:16;;;;;;;22.17;11.43;;;;;;;;;;5032054;28;20078;-68
2022/03/01 06:04:01;;;;;;;21.27;11.35;;;;;;;;;;5033659;28;20032;-66
2022/03/01 06:06:47;;;;;;;20.60;10.70;;;;;;;;;;5035250;28;20028;-64
2022/03/01 06:09:32;;;;;;;23.13;11.15;;;;;;;;;;5021956;28;20487;-63
2022/03/01 06:12:17;;;;;;;19.52;10.18;;;;;;;;;;5024920;28;20534;-66
2022/03/01 06:15:04;;;;;;;26.15;12.27;;;;;;;;;;5017884;28;20488;-66
2022/03/01 06:17:49;;;;;;;22.42;11.57;;;;;;;;;;5022433;28;20455;-64
2022/03/01 06:20:34;;;;;;;22.25;11.40;;;;;;;;;;5032205;28;20021;-63
2022/03/01 06:23:19;;;;;;;21.05;10.40;;;;;;;;;;5036681;28;20090;-63
2022/03/01 06:26:05;;;;;;;19.67;11.80;;;;;;;;;;5034849;28;20021;-67
2022/03/01 06:28:50;;;;;;;22.38;11.18;;;;;;;;;;5024874;28;20607;-62
2022/03/01 06:31:35;;;;;;;22.48;10.27;;;;;;;;;;5024312;28;20037;-61
2022/03/01 06:34:20;;;;;;;20.73;11.15;;;;;;;;;;5034441;28;20028;-61
2022/03/01 06:37:12;;;;;;;20.52;10.85;;;;;;;;;;5022536;28;20503;-66
2022/03/01 06:39:57;;;;;;;21.25;11.10;;;;;;;;;;5018051;28;20029;-62
2022/03/01 06:42:43;;;;;;;20.10;11.18;;;;;;;;;;5022399;28;20352;-63
2022/03/01 06:45:28;;;;;;;20.83;10.20;;;;;;;;;;5035822;28;20439;-64
2022/03/01 06:48:13;;;;;;;19.45;10.70;;;;;;;;;;5026354;28;20061;-64
2022/03/01 06:50:58;;;;;;;23.95;11.43;;;;;;;;;;5024510;28;20047;-64
2022/03/01 06:53:44;;;;;;;23.17;10.80;;;;;;;;;;5024136;28;20026;-61
2022/03/01 06:56:29;;;;;;;21.58;11.18;;;;;;;;;;5015737;28;20389;-61
2022/03/01 06:59:15;;;;;;;22.92;11.43;;;;;;;;;;5030971;28;20586;-61
2022/03/01 07:02:00;;;;;;;19.63;11.23;;;;;;;;;;5022047;28;20044;-65
2022/03/01 07:04:45;;;;;;;20.65;11.30;;;;;;;;;;5032602;28;20024;-65
2022/03/01 07:07:31;;;;;;;19.15;11.60;;;;;;;;;;5035014;28;20056;-65
2022/03/01 07:10:16;;;;;;;20.45;11.00;;;;;;;;;;5026721;28;20037;-65
2022/03/01 07:13:02;;;;;;;27.98;12.20;;;;;;;;;;5032243;28;20033;-67
2022/03/01 07:15:47;;;;;;;21.98;11.82;;;;;;;;;;5024302;28;20021;-68
2022/03/01 07:18:32;;;;;;;23.38;12.57;;;;;;;;;;5033348;28;20106;-65
2022/03/01 07:21:18;;;;;;;21.40;11.48;;;;;;;;;;5022275;28;20072;-66
2022/03/01 07:24:03;;;;;;;24.98;11.85;;;;;;;;;;5030169;28;20053;-62
2022/03/01 07:26:49;;;;;;;22.67;12.05;;;;;;;;;;5028455;28;20470;-60
2022/03/01 07:29:34;;;;;;;24.67;12.77;;;;;;;;;;5025921;28;20045;-63
2022/03/01 07:32:19;;;;;;;21.88;11.80;;;;;;;;;;5024657;28;20037;-64
2022/03/01 07:35:05;;;;;;;20.25;12.70;;;;;;;;;;5027368;28;20324;-63
2022/03/01 07:37:51;;;;;;;26.10;12.38;;;;;;;;;;5045577;28;20029;-64
2022/03/01 07:40:36;;;;;;;26.58;11.95;;;;;;;;;;5031305;28;20534;-61
2022/03/01 07:43:22;;;;;;;19.23;10.95;;;;;;;;;;5025632;28;20029;-64
2022/03/01 07:46:13;;;;;;;21.45;11.23;;;;;;;;;;5033687;28;20028;-65
2022/03/01 07:48:58;;;;;;;21.70;13.00;;;;;;;;;;5031051;28;20025;-66
2022/03/01 07:51:43;;;;;;;24.60;11.70;;;;;;;;;;5032065;28;20037;-66
2022/03/01 07:54:28;;;;;;;21.15;10.38;;;;;;;;;;5028992;28;20086;-65
2022/03/01 07:57:14;;;;;;;22.38;11.85;;;;;;;;;;5031813;28;20048;-61
2022/03/01 07:59:59;;;;;;;23.02;12.50;;;;;;;;;;5019139;28;20515;-62
2022/03/01 08:02:44;;;;;;;17.88;11.02;;;;;;;;;;5033081;28;20032;-63
2022/03/01 08:05:30;;;;;;;25.00;11.95;;;;;;;;;;5028981;28;20116;-62
2022/03/01 08:08:15;;;;;;;18.92;11.10;;;;;;;;;;5029855;28;20487;-63
2022/03/01 08:11:00;;;;;;;19.25;10.93;;;;;;;;;;5028646;28;20040;-63
2022/03/01 08:13:46;;;;;;;19.52;10.90;;;;;;;;;;5035085;28;20029;-63
2022/03/01 08:16:31;;;;;;;22.50;11.05;;;;;;;;;;5025518;28;20026;-64
2022/03/01 08:19:16;;;;;;;19.55;10.90;;;;;;;;;;5034010;28;20093;-64
2022/03/01 08:22:02;;;;;;;20.90;12.00;;;;;;;;;;5032339;28;20527;-64
2022/03/01 08:24:50;;;;;;;21.55;11.52;;;;;;;;;;5029021;28;20066;-64
2022/03/01 08:27:35;;;;;;;20.55;10.80;;;;;;;;;;5027132;28;20021;-62
2022/03/01 08:30:21;;;;;;;24.05;11.48;;;;;;;;;;5024279;28;20487;-62
2022/03/01 08:33:06;;;;;;;18.98;10.85;;;;;;;;;;5027636;28;20055;-63
2022/03/01 08:35:52;;;;;;;19.15;10.57;;;;;;;;;;5036730;28;20032;-63
2022/03/01 08:38:37;;;;;;;20.08;10.95;;;;;;;;;;5034214;28;20664;-61
2022/03/01 08:41:23;;;;;;;16.23;9.60;;;;;;;;;;5028017;28;20519;-61
2022/03/01 08:44:08;;;;;;;18.52;9.88;;;;;;;;;;5033756;28;20550;-65
2022/03/01 08:46:54;;;;;;;16.45;10.25;;;;;;;;;;5027766;28;20052;-62
2022/03/01 08:49:39;;;;;;;19.83;10.70;;;;;;;;;;5025848;28;20484;-62
2022/03/01 08:52:24;;;;;;;16.33;9.95;;;;;;;;;;5029276;28;20022;-64
2022/03/01 08:55:09;;;;;;;18.58;9.85;;;;;;;;;;5031200;28;20472;-64
2022/03/01 08:57:55;;;;;;;16.30;9.48;;;;;;;;;;5032248;28;20033;-65
2022/03/01 09:00:40;;;;;;;15.95;9.55;;;;;;;;;;5032381;28;20082;-67
2022/03/01 09:03:26;;;;;;;18.02;9.80;;;;;;;;;;5030150;28;20060;-66
2022/03/01 09:06:11;;;;;;;19.13;10.80;;;;;;;;;;5031633;28;20609;-62
2022/03/01 09:08:56;;;;;;;14.23;8.68;;;;;;;;;;5029188;28;20087;-62
2022/03/01 09:11:42;;;;;;;16.92;10.38;;;;;;;;;;5028971;28;20506;-62
2022/03/01 09:14:27;;;;;;;18.98;9.93;;;;;;;;;;5017559;28;20025;-62
2022/03/01 09:17:12;;;;;;;14.82;9.25;;;;;;;;;;5030645;28;20037;-62
2022/03/01 09:19:57;;;;;;;17.20;9.95;;;;;;;;;;5030909;28;20025;-61
2022/03/01 09:22:43;;;;;;;17.35;10.05;;;;;;;;;;5031187;28;20435;-63
2022/03/01 09:25:28;;;;;;;16.23;9.60;;;;;;;;;;5033620;28;20392;-60
2022/03/01 09:28:14;;;;;;;14.23;9.48;;;;;;;;;;5037043;28;20108;-60
2022/03/01 09:30:59;;;;;;;14.35;9.50;;;;;;;;;;5032265;28;20079;-60
2022/03/01 09:33:45;;;;;;;16.05;8.82;;;;;;;;;;5031637;28;20475;-61
2022/03/01 09:36:30;;;;;;;17.58;9.38;;;;;;;;;;5010092;28;20016;-66
2022/03/01 09:39:15;;;;;;;15.10;8.77;;;;;;;;;;5031156;28;20032;-67
2022/03/01 09:42:01;;;;;;;15.63;9.80;;;;;;;;;;5028926;28;20041;-67
2022/03/01 09:44:46;;;;;;;16.50;9.90;;;;;;;;;;5031669;28;20446;-64
2022/03/01 09:47:32;;;;;;;15.20;8.88;;;;;;;;;;5032667;28;20024;-62
2022/03/01 09:50:17;;;;;;;14.23;9.60;;;;;;;;;;5030638;28;20041;-62
2022/03/01 09:53:03;;;;;;;13.85;9.10;;;;;;;;;;5024403;28;20033;-60
2022/03/01 09:55:48;;;;;;;14.02;8.82;;;;;;;;;;5028317;28;20033;-62
2022/03/01 09:58:34;;;;;;;15.50;9.13;;;;;;;;;;5031434;28;20356;-62
2022/03/01 10:01:19;;;;;;;15.20;9.25;;;;;;;;;;5022102;28;20057;-65
2022/03/01 10:04:08;;;;;;;16.33;9.30;;;;;;;;;;5014341;28;20375;-63
2022/03/01 10:06:53;;;;;;;15.20;9.35;;;;;;;;;;5032047;28;20024;-63
2022/03/01 10:09:40;;;;;;;13.55;9.73;;;;;;;;;;5026905;28;20478;-63
2022/03/01 10:12:26;;;;;;;14.35;9.55;;;;;;;;;;5032394;28;20027;-64
2022/03/01 10:15:13;;;;;;;14.43;9.57;;;;;;;;;;5032538;28;20025;-64
2022/03/01 10:18:08;;;;;;;14.88;9.38;;;;;;;;;;5031702;28;20534;-64
2022/03/01 10:21:00;;;;;;;11.82;9.15;;;;;;;;;;5039598;28;20079;-62
2022/03/01 10:23:47;;;;;;;12.45;9.32;;;;;;;;;;5032057;28;20024;-66
2022/03/01 10:26:32;;;;;;;13.45;9.63;;;;;;;;;;5026146;28;20041;-64
2022/03/01 10:29:17;;;;;;;14.27;10.13;;;;;;;;;;5032335;28;20112;-65
2022/03/01 10:32:12;;;;;;;14.15;10.07;;;;;;;;;;5029826;28;20518;-68
2022/03/01 10:35:05;;;;;;;12.88;9.82;;;;;;;;;;5026516;28;20124;-65
2022/03/01 10:37:50;;;;;;;16.08;10.10;;;;;;;;;;5028540;28;20082;-65
2022/03/01 10:40:36;;;;;;;13.10;10.35;;;;;;;;;;5026383;28;20035;-66
2022/03/01 10:43:24;;;;;;;17.00;9.15;;;;;;;;;;5034426;28;20033;-64
2022/03/01 10:46:09;;;;;;;13.85;8.63;;;;;;;;;;5033895;28;20433;-62
2022/03/01 10:49:00;;;;;;;13.80;9.95;;;;;;;;;;5030694;28;20060;-62
2022/03/01 10:51:53;;;;;;;13.73;8.90;;;;;;;;;;5029400;28;20060;-63
2022/03/01 10:54:39;;;;;;;11.77;8.30;;;;;;;;;;5032029;28;20025;-61
2022/03/01 10:57:24;;;;;;;13.77;8.88;;;;;;;;;;5027783;28;20017;-61
2022/03/01 11:00:10;;;;;;;11.35;8.70;;;;;;;;;;5024697;28;20694;-60
2022/03/01 11:02:55;;;;;;;11.35;8.38;;;;;;;;;;5031441;28;20029;-65
2022/03/01 11:05:41;;;;;;;12.60;9.00;;;;;;;;;;5022043;28;20033;-65
2022/03/01 11:08:37;;;;;;;12.52;8.48;;;;;;;;;;5019773;28;20024;-66
2022/03/01 11:11:24;;;;;;;12.75;8.50;;;;;;;;;;5033088;28;20548;-65
2022/03/01 11:14:10;;;;;;;11.05;8.27;;;;;;;;;;5032682;28;20033;-68
2022/03/01 11:16:58;;;;;;;13.20;8.60;;;;;;;;;;5039224;28;20036;-67
2022/03/01 11:20:03;;;;;;;13.75;9.07;;;;;;;;;;5020378;28;20479;-62
2022/03/01 11:22:59;;;;;;;12.57;8.52;;;;;;;;;;5017353;28;20053;-66
2022/03/01 11:25:47;;;;;;;12.95;7.95;;;;;;;;;;5050766;28;20033;-62
2022/03/01 11:28:40;;;;;;;13.82;9.35;;;;;;;;;;5032083;28;20467;-63
2022/03/01 11:31:30;;;;;;;12.95;8.77;;;;;;;;;;5028865;28;20539;-65
2022/03/01 11:34:16;;;;;;;13.13;8.10;;;;;;;;;;5025051;28;20040;-67
2022/03/01 11:37:02;;;;;;;14.00;8.88;;;;;;;;;;5031868;28;20036;-64
2022/03/01 11:39:54;;;;;;;15.50;9.32;;;;;;;;;;5026045;28;20029;-64
2022/03/01 11:42:40;;;;;;;13.80;8.80;;;;;;;;;;5024439;28;20029;-61
2022/03/01 11:45:31;;;;;;;12.48;8.40;;;;;;;;;;5027594;28;20032;-62
2022/03/01 11:48:22;;;;;;;12.60;7.90;;;;;;;;;;5032842;28;20398;-64
2022/03/01 11:51:07;;;;;;;14.30;8.02;;;;;;;;;;5023571;28;20461;-65
2022/03/01 11:53:52;;;;;;;15.10;7.90;;;;;;;;;;5029454;28;20108;-62
2022/03/01 11:56:41;;;;;;;14.82;8.00;;;;;;;;;;5025963;28;20107;-64
2022/03/01 11:59:26;;;;;;;13.45;8.90;;;;;;;;;;5023304;28;20124;-63
2022/03/01 12:02:12;;;;;;;13.60;8.68;;;;;;;;;;5029047;28;20542;-62
2022/03/01 12:05:01;;;;;;;15.02;8.38;;;;;;;;;;5014771;28;20085;-72
2022/03/01 12:07:48;;;;;;;11.35;8.15;;;;;;;;;;5028465;28;20063;-67
2022/03/01 12:10:34;;;;;;;12.35;7.80;;;;;;;;;;5031749;28;20048;-62
2022/03/01 12:13:20;;;;;;;11.43;7.63;;;;;;;;;;5032084;28;20059;-65
2022/03/01 12:16:06;;;;;;;13.25;7.63;;;;;;;;;;5029106;28;20036;-63
2022/03/01 12:18:52;;;;;;;16.02;8.13;;;;;;;;;;5038151;28;20468;-67
2022/03/01 12:21:37;;;;;;;12.27;8.23;;;;;;;;;;5030639;28;20031;-66
2022/03/01 12:24:23;;;;;;;13.85;8.02;;;;;;;;;;5033238;28;20032;-66
2022/03/01 12:27:11;;;;;;;11.25;7.50;;;;;;;;;;5030451;28;20028;-66
2022/03/01 12:30:00;;;;;;;12.40;7.45;;;;;;;;;;5026389;28;20117;-69
2022/03/01 12:32:52;;;;;;;15.07;8.40;;;;;;;;;;5028156;28;20108;-67
2022/03/01 12:35:38;;;;;;;14.45;8.82;;;;;;;;;;5022950;28;20045;-63
2022/03/01 12:38:23;;;;;;;13.07;7.95;;;;;;;;;;5029155;28;20029;-64
2022/03/01 12:41:09;;;;;;;11.82;7.47;;;;;;;;;;5033617;28;20028;-64
2022/03/01 12:43:59;;;;;;;12.68;7.70;;;;;;;;;;5030809;28;20135;-65
2022/03/01 12:46:44;;;;;;;10.88;7.03;;;;;;;;;;5032824;28;20035;-66
2022/03/01 12:49:33;;;;;;;12.30;7.57;;;;;;;;;;5028177;28;20530;-66
2022/03/01 12:52:20;;;;;;;10.95;7.53;;;;;;;;;;5028407;28;20061;-63
2022/03/01 12:55:05;;;;;;;13.40;7.18;;;;;;;;;;5026064;28;20050;-67
2022/03/01 12:57:51;;;;;;;11.18;6.97;;;;;;;;;;5025693;28;20399;-68
2022/03/01 13:00:36;;;;;;;12.68;7.30;;;;;;;;;;5027358;28;20384;-70
2022/03/01 13:03:26;;;;;;;10.48;6.38;;;;;;;;;;5031981;28;20025;-68
2022/03/01 13:06:13;;;;;;;13.98;7.70;;;;;;;;;;5036639;28;20379;-67
2022/03/01 13:08:58;;;;;;;11.23;6.97;;;;;;;;;;5032660;28;20044;-66
2022/03/01 13:11:45;;;;;;;12.40;7.30;;;;;;;;;;5019125;28;20045;-66
2022/03/01 13:14:31;;;;;;;14.48;8.15;;;;;;;;;;5033944;28;20021;-64
2022/03/01 13:17:16;;;;;;;14.30;6.93;;;;;;;;;;5033584;28;20522;-65
2022/03/01 13:20:03;;;;;;;13.05;7.70;;;;;;;;;;5027922;28;20029;-65
2022/03/01 13:22:58;;;;;;;11.63;6.93;;;;;;;;;;5019457;28;20455;-62
2022/03/01 13:25:43;;;;;;;11.57;6.72;;;;;;;;;;5033145;28;20070;-68
2022/03/01 13:28:33;;;;;;;13.50;7.47;;;;;;;;;;5032237;28;20029;-64
2022/03/01 13:31:19;;;;;;;12.35;7.63;;;;;;;;;;5032999;28;20489;-62
2022/03/01 13:34:05;;;;;;;11.73;7.60;;;;;;;;;;5031561;28;20032;-64
2022/03/01 13:36:51;;;;;;;14.23;7.57;;;;;;;;;;5033218;28;20036;-64
2022/03/01 13:39:37;;;;;;;14.38;7.55;;;;;;;;;;5031330;28;20040;-62
2022/03/01 13:42:23;;;;;;;11.43;6.95;;;;;;;;;;5033596;28;20407;-64
2022/03/01 13:45:09;;;;;;;13.05;6.50;;;;;;;;;;5030685;28;20033;-64
2022/03/01 13:47:55;;;;;;;12.25;7.63;;;;;;;;;;5033254;28;20035;-63
2022/03/01 13:50:41;;;;;;;12.20;7.50;;;;;;;;;;5023783;28;20042;-66
2022/03/01 13:53:27;;;;;;;12.48;7.55;;;;;;;;;;5026697;28;20029;-68
2022/03/01 13:56:13;;;;;;;13.18;7.70;;;;;;;;;;5030238;28;20040;-66
2022/03/01 13:59:00;;;;;;;10.82;7.25;;;;;;;;;;5021866;28;20115;-66
2022/03/01 14:01:49;;;;;;;11.63;6.63;;;;;;;;;;5030927;28;20498;-67
2022/03/01 14:04:34;;;;;;;10.23;6.32;;;;;;;;;;5033762;28;20522;-67
2022/03/01 14:07:23;;;;;;;13.02;7.47;;;;;;;;;;5036188;28;20139;-66
2022/03/01 14:10:08;;;;;;;13.20;7.85;;;;;;;;;;5031324;28;20072;-64
2022/03/01 14:13:07;;;;;;;11.32;6.75;;;;;;;;;;5031933;28;20043;-64
2022/03/01 14:16:04;;;;;;;11.97;7.43;;;;;;;;;;5025974;28;20075;-62
2022/03/01 14:18:51;;;;;;;10.65;7.10;;;;;;;;;;5031689;28;20294;-62
2022/03/01 14:21:36;;;;;;;11.13;6.65;;;;;;;;;;5031371;28;20076;-64
2022/03/01 14:24:24;;;;;;;15.15;7.72;;;;;;;;;;5028971;28;20021;-64
2022/03/01 14:27:10;;;;;;;12.38;7.45;;;;;;;;;;5035787;28;20040;-66
2022/03/01 14:29:55;;;;;;;14.63;7.82;;;;;;;;;;5031597;28;20047;-66
2022/03/01 14:32:41;;;;;;;12.80;7.68;;;;;;;;;;5032121;28;20452;-66
2022/03/01 14:35:27;;;;;;;12.90;8.02;;;;;;;;;;5031583;28;20024;-65
2022/03/01 14:38:12;;;;;;;13.95;6.72;;;;;;;;;;5034651;28;20665;-63
2022/03/01 14:40:58;;;;;;;11.70;7.32;;;;;;;;;;5029694;28;20144;-65
2022/03/01 14:43:43;;;;;;;11.95;7.25;;;;;;;;;;5017551;28;20395;-63
2022/03/01 14:46:28;;;;;;;10.13;6.60;;;;;;;;;;5035364;28;20029;-70
2022/03/01 14:49:14;;;;;;;14.05;7.60;;;;;;;;;;5031949;28;20593;-70
2022/03/01 14:51:59;;;;;;;13.27;7.82;;;;;;;;;;5028499;28;20043;-68
2022/03/01 14:54:45;;;;;;;12.50;7.47;;;;;;;;;;5031158;28;20060;-69
2022/03/01 14:57:30;;;;;;;12.32;6.50;;;;;;;;;;5033387;28;20091;-69
2022/03/01 15:00:15;;;;;;;11.00;6.82;;;;;;;;;;5028339;28;20104;-65
2022/03/01 15:03:02;;;;;;;14.25;7.30;;;;;;;;;;5030317;28;20134;-70
2022/03/01 15:05:49;;;;;;;12.65;7.95;;;;;;;;;;5035764;28;20025;-62
2022/03/01 15:08:35;;;;;;;11.25;6.82;;;;;;;;;;5031360;28;20029;-59
2022/03/01 15:11:20;;;;;;;11.68;6.57;;;;;;;;;;5031536;28;20131;-64
2022/03/01 15:14:05;;;;;;;12.30;7.95;;;;;;;;;;5034886;28;20024;-64
2022/03/01 15:16:50;;;;;;;12.75;7.65;;;;;;;;;;5025497;28;20492;-63
2022/03/01 15:19:37;;;;;;;15.32;7.93;;;;;;;;;;5029497;28;20029;-65
2022/03/01 15:22:22;;;;;;;15.90;8.68;;;;;;;;;;5031162;28;20068;-63
2022/03/01 15:30:12;;;;;;;12.88;7.32;;;;;;;;;;5072513;22;20246;-64
2022/03/01 15:32:57;;;;;;;13.88;7.05;;;;;;;;;;5022285;28;20075;-61
2022/03/01 15:35:42;;;;;;;12.02;7.57;;;;;;;;;;5034170;28;20025;-62
2022/03/01 15:38:27;;;;;;;14.32;8.30;;;;;;;;;;5031792;28;20070;-63
2022/03/01 15:41:13;;;;;;;14.80;8.00;;;;;;;;;;5047539;28;20033;-61
2022/03/01 15:43:58;;;;;;;12.98;6.65;;;;;;;;;;5033435;28;20042;-71
2022/03/01 15:46:43;;;;;;;12.75;7.18;;;;;;;;;;5023393;28;20020;-68
2022/03/01 15:49:28;;;;;;;13.70;7.13;;;;;;;;;;5021559;28;20032;-69
2022/03/01 15:52:14;;;;;;;15.40;8.63;;;;;;;;;;5051213;28;20413;-66
2022/03/01 15:54:59;;;;;;;12.23;7.38;;;;;;;;;;5035209;28;20112;-67
2022/03/01 15:57:45;;;;;;;10.65;6.68;;;;;;;;;;5035737;28;20120;-67
2022/03/01 16:00:41;;;;;;;12.35;7.68;;;;;;;;;;5031141;28;20037;-72
2022/03/01 16:03:26;;;;;;;16.20;8.07;;;;;;;;;;5043546;28;20021;-72
2022/03/01 16:06:11;;;;;;;14.93;8.32;;;;;;;;;;5034363;28;20079;-65
2022/03/01 16:08:56;;;;;;;13.15;7.80;;;;;;;;;;5034136;28;20028;-69
2022/03/01 16:11:42;;;;;;;13.60;7.70;;;;;;;;;;5028663;28;20020;-65
2022/03/01 16:14:28;;;;;;;15.30;8.05;;;;;;;;;;5016365;28;20033;-65
2022/03/01 16:17:14;;;;;;;14.27;8.32;;;;;;;;;;5050421;28;20047;-69
2022/03/01 16:20:00;;;;;;;12.88;7.40;;;;;;;;;;5032641;28;20098;-72
2022/03/01 16:22:45;;;;;;;14.15;7.35;;;;;;;;;;5043120;28;20031;-67